Time;durP1;ratioP1;P1;durP2;ratioP2;P2;SDS_P1;SDS_P2;PMS_P1;PMS_P2;Temp;Humidity;BMP_temperature;BMP_pressure;BME280_temperature;BME280_humidity;BME280_pressure;Samples;Min_cycle;Max_cycle;Signal;HPM_P1;HPM_P2
2022/04/26 03:38:06;;;;;;;23.92;14.15;;;0.30;99.90;;;;;;5014314;28;20087;-66
2022/04/26 03:40:31;;;;;;;24.60;14.25;;;0.30;99.90;;;;;;5013541;28;20025;-66
2022/04/26 03:42:57;;;;;;;30.70;15.00;;;0.30;99.90;;;;;;5014100;28;20034;-66
2022/04/26 03:45:22;;;;;;;26.85;13.95;;;0.30;99.90;;;;;;5013478;28;20029;-66
2022/04/26 03:47:49;;;;;;;36.08;17.10;;;0.50;99.90;;;;;;5013208;28;20037;-66
2022/04/26 03:50:14;;;;;;;61.67;21.08;;;0.80;99.90;;;;;;5013471;28;20053;-66
2022/04/26 03:52:40;;;;;;;69.35;26.95;;;1.50;99.90;;;;;;5013513;28;20029;-66
2022/04/26 03:55:06;;;;;;;84.07;27.90;;;2.30;99.90;;;;;;5013813;28;20091;-66
2022/04/26 03:57:32;;;;;;;88.85;25.73;;;2.90;99.90;;;;;;5012864;28;20022;-66
2022/04/26 03:59:57;;;;;;;87.93;24.45;;;3.20;99.90;;;;;;5013505;28;20049;-66
2022/04/26 04:02:23;;;;;;;78.90;25.50;;;3.50;99.90;;;;;;5013331;28;20026;-66
2022/04/26 04:04:49;;;;;;;69.57;23.70;;;3.70;99.90;;;;;;5013584;28;20022;-66
2022/04/26 04:07:15;;;;;;;110.00;25.00;;;3.80;99.90;;;;;;5013369;28;20052;-66
2022/04/26 04:09:40;;;;;;;151.88;23.88;;;3.90;99.90;;;;;;5013031;28;20033;-66
2022/04/26 04:12:07;;;;;;;151.38;25.23;;;3.80;99.90;;;;;;5013416;28;20025;-66
2022/04/26 04:14:32;;;;;;;130.35;22.15;;;3.80;99.90;;;;;;5011950;28;20036;-66
2022/04/26 04:16:58;;;;;;;96.60;22.88;;;3.90;99.90;;;;;;5013266;28;20100;-66
2022/04/26 04:19:25;;;;;;;159.73;22.25;;;4.00;99.90;;;;;;5013338;28;20061;-66
2022/04/26 04:21:51;;;;;;;147.02;22.90;;;4.00;99.90;;;;;;5013167;28;20030;-66
2022/04/26 04:24:17;;;;;;;139.45;25.55;;;4.10;99.90;;;;;;5012748;28;20087;-66
2022/04/26 04:26:43;;;;;;;156.68;25.45;;;4.10;99.90;;;;;;5013388;28;20022;-66
2022/04/26 04:29:09;;;;;;;183.00;25.98;;;4.10;99.90;;;;;;5013058;28;20026;-66
2022/04/26 04:31:35;;;;;;;117.90;24.15;;;4.10;99.90;;;;;;5013165;28;20037;-66
2022/04/26 04:34:02;;;;;;;123.50;23.80;;;4.20;99.90;;;;;;5016972;28;20059;-66
2022/04/26 04:36:27;;;;;;;179.25;23.60;;;4.20;99.90;;;;;;5016787;28;20034;-66
2022/04/26 04:38:53;;;;;;;89.53;21.73;;;4.30;99.90;;;;;;5016406;28;20113;-66
2022/04/26 04:41:19;;;;;;;114.93;19.75;;;4.40;99.90;;;;;;5016985;28;20026;-66
2022/04/26 04:43:45;;;;;;;105.05;20.50;;;4.50;99.90;;;;;;5016681;28;20018;-66
2022/04/26 04:46:11;;;;;;;121.75;21.45;;;4.50;99.90;;;;;;5016594;28;20026;-66
2022/04/26 04:48:37;;;;;;;73.15;20.58;;;4.50;99.90;;;;;;5016201;28;20034;-66
2022/04/26 04:51:02;;;;;;;88.55;20.10;;;4.50;99.90;;;;;;5016936;28;20041;-66
2022/04/26 04:53:28;;;;;;;76.53;21.77;;;4.60;99.90;;;;;;5016769;28;20029;-66
2022/04/26 04:55:54;;;;;;;115.45;23.20;;;4.60;99.90;;;;;;5016890;28;20459;-66
2022/04/26 04:58:19;;;;;;;153.45;25.27;;;4.70;99.90;;;;;;5016955;28;20036;-66
2022/04/26 05:00:45;;;;;;;63.28;21.63;;;4.80;99.90;;;;;;5015791;28;20026;-66
2022/04/26 05:03:10;;;;;;;265.75;24.20;;;4.80;99.90;;;;;;5017139;28;20022;-66
2022/04/26 05:05:36;;;;;;;116.78;21.50;;;4.90;99.90;;;;;;5016195;28;20041;-66
2022/04/26 05:08:02;;;;;;;72.82;19.65;;;5.00;99.90;;;;;;5015898;28;20018;-66
2022/04/26 05:10:29;;;;;;;82.20;19.33;;;5.00;99.90;;;;;;5016198;28;20028;-65
2022/04/26 05:12:55;;;;;;;43.55;17.58;;;5.00;99.90;;;;;;5016087;28;20038;-65
2022/04/26 05:15:20;;;;;;;53.55;19.75;;;5.10;99.90;;;;;;5016075;28;20093;-65
2022/04/26 05:17:46;;;;;;;112.82;19.88;;;5.10;99.90;;;;;;5016070;28;20030;-66
2022/04/26 05:20:11;;;;;;;101.07;20.17;;;5.10;99.90;;;;;;5016265;28;20029;-66
2022/04/26 05:25:22;;;;;;;72.45;21.25;;;5.20;99.90;;;;;;5015433;28;20033;-66
2022/04/26 05:27:47;;;;;;;56.67;19.92;;;5.20;99.90;;;;;;5015892;28;20022;-66
2022/04/26 05:30:13;;;;;;;61.63;22.20;;;5.30;99.90;;;;;;5016072;28;20355;-66
2022/04/26 05:32:39;;;;;;;67.60;22.10;;;5.40;99.90;;;;;;5015799;28;20112;-66
2022/04/26 05:37:32;;;;;;;39.65;19.42;;;5.50;99.90;;;;;;4975730;28;20392;-70
2022/04/26 05:40:02;;;;;;;66.70;25.00;;;5.50;99.90;;;;;;4976567;28;20082;-70
2022/04/26 05:42:31;;;;;;;55.55;20.85;;;5.60;99.90;;;;;;4976978;28;20030;-70
2022/04/26 05:44:57;;;;;;;39.40;19.40;;;5.60;99.90;;;;;;4976990;28;20023;-70
2022/04/26 05:47:23;;;;;;;49.00;20.70;;;5.70;99.90;;;;;;4995724;28;20439;-70
2022/04/26 05:49:49;;;;;;;47.17;21.13;;;5.70;99.90;;;;;;4995759;28;20489;-70
2022/04/26 05:52:15;;;;;;;41.75;21.08;;;5.70;99.90;;;;;;4996476;28;20489;-70
2022/04/26 05:54:40;;;;;;;50.70;18.88;;;5.70;99.90;;;;;;4996651;28;20089;-71
2022/04/26 05:57:06;;;;;;;51.50;19.02;;;5.60;99.90;;;;;;4996249;28;20037;-71
2022/04/26 05:59:32;;;;;;;48.95;20.05;;;5.80;99.90;;;;;;4996329;28;20031;-71
2022/04/26 06:01:57;;;;;;;42.10;17.98;;;5.80;99.90;;;;;;4995910;28;20038;-70
2022/04/26 06:04:24;;;;;;;44.50;16.73;;;5.90;99.90;;;;;;4995562;28;20034;-70
2022/04/26 06:06:51;;;;;;;42.15;19.05;;;5.80;99.90;;;;;;4996085;28;20030;-70
2022/04/26 06:09:17;;;;;;;42.40;16.48;;;5.80;99.90;;;;;;4995787;28;20471;-70
2022/04/26 06:11:42;;;;;;;44.03;17.13;;;5.90;99.90;;;;;;4995848;28;20041;-70
2022/04/26 06:14:08;;;;;;;37.60;18.73;;;5.90;99.90;;;;;;4995484;28;20394;-70
2022/04/26 06:16:34;;;;;;;34.20;16.80;;;5.90;99.90;;;;;;4996148;28;20097;-70
2022/04/26 06:18:59;;;;;;;43.60;18.65;;;6.00;99.90;;;;;;4995624;28;20026;-70
2022/04/26 06:21:25;;;;;;;33.60;18.30;;;6.00;99.90;;;;;;4995462;28;20438;-70
2022/04/26 06:23:50;;;;;;;41.00;19.73;;;6.10;99.90;;;;;;4995802;28;20026;-70
2022/04/26 06:26:16;;;;;;;44.22;17.63;;;6.30;99.90;;;;;;4995278;28;20046;-70
2022/04/26 06:28:42;;;;;;;38.47;17.13;;;6.40;99.90;;;;;;4995447;28;20021;-70
2022/04/26 06:31:08;;;;;;;32.75;16.77;;;6.50;99.90;;;;;;4995384;28;20031;-70
2022/04/26 06:33:34;;;;;;;36.15;16.10;;;6.40;99.90;;;;;;4995388;28;20057;-70
2022/04/26 06:36:00;;;;;;;33.58;16.58;;;6.30;99.90;;;;;;4995362;28;20042;-70
2022/04/26 06:38:26;;;;;;;36.85;17.00;;;6.40;99.90;;;;;;4994818;28;20034;-70
2022/04/26 06:40:52;;;;;;;37.80;15.07;;;6.60;99.90;;;;;;4995403;28;20042;-70
2022/04/26 06:43:18;;;;;;;34.22;14.70;;;6.60;99.90;;;;;;4995230;28;20038;-70
2022/04/26 06:45:46;;;;;;;35.65;13.98;;;6.60;99.90;;;;;;4995642;28;20022;-70
2022/04/26 06:48:14;;;;;;;42.03;15.30;;;6.70;99.90;;;;;;4994962;28;20050;-70
2022/04/26 06:50:40;;;;;;;29.35;13.98;;;6.80;99.90;;;;;;4994875;28;20022;-70
2022/04/26 06:53:07;;;;;;;43.60;12.70;;;7.00;99.90;;;;;;4994853;28;20073;-70
2022/04/26 06:55:33;;;;;;;37.55;13.88;;;7.10;99.90;;;;;;4994232;28;20026;-70
2022/04/26 06:57:58;;;;;;;33.88;13.65;;;7.10;99.90;;;;;;4994966;28;20386;-70
2022/04/26 07:00:24;;;;;;;25.08;12.23;;;7.30;99.90;;;;;;4995249;28;20027;-70
2022/04/26 07:02:50;;;;;;;22.45;11.68;;;7.30;99.90;;;;;;4994384;28;20449;-70
2022/04/26 07:05:16;;;;;;;21.52;10.98;;;7.40;99.90;;;;;;4994790;28;20497;-70
2022/04/26 07:07:42;;;;;;;33.45;10.45;;;7.80;99.90;;;;;;4995064;28;20058;-70
2022/04/26 07:10:09;;;;;;;27.88;10.35;;;7.60;99.90;;;;;;4995138;28;20053;-70
2022/04/26 07:12:35;;;;;;;19.55;8.43;;;7.50;99.90;;;;;;4995286;28;20479;-70
2022/04/26 07:15:01;;;;;;;32.25;9.73;;;7.40;99.90;;;;;;4994430;28;20062;-70
2022/04/26 07:17:26;;;;;;;27.98;8.45;;;7.50;99.90;;;;;;4994454;28;20446;-70
2022/04/26 07:19:52;;;;;;;20.55;9.80;;;7.70;99.90;;;;;;4994497;28;20065;-70
2022/04/26 07:22:17;;;;;;;25.20;10.50;;;7.70;99.90;;;;;;4994983;28;20029;-70
2022/04/26 07:24:46;;;;;;;30.60;9.52;;;7.90;99.90;;;;;;4994070;28;20077;-70
2022/04/26 07:27:12;;;;;;;23.58;9.25;;;8.20;99.90;;;;;;4994490;28;20037;-70
2022/04/26 07:29:41;;;;;;;29.02;9.18;;;8.00;99.90;;;;;;4995496;28;20026;-70
2022/04/26 07:32:07;;;;;;;21.90;8.35;;;7.90;99.90;;;;;;4994428;28;20042;-70
2022/04/26 07:34:33;;;;;;;21.67;9.70;;;8.00;99.90;;;;;;4994338;28;20061;-70
2022/04/26 07:37:01;;;;;;;32.08;10.65;;;8.10;99.90;;;;;;4993772;28;20053;-70
2022/04/26 07:39:27;;;;;;;22.73;8.48;;;8.70;99.90;;;;;;4994851;28;20101;-70
2022/04/26 07:41:53;;;;;;;21.48;8.73;;;9.00;99.90;;;;;;4994308;28;20109;-70
2022/04/26 07:44:19;;;;;;;23.42;9.38;;;9.20;99.90;;;;;;4994705;28;20077;-70
2022/04/26 07:46:46;;;;;;;30.13;8.68;;;9.00;99.90;;;;;;4993873;28;20467;-70
2022/04/26 07:49:13;;;;;;;24.98;8.52;;;9.20;99.90;;;;;;4993895;28;20073;-70
2022/04/26 07:51:39;;;;;;;20.35;6.68;;;9.50;99.90;;;;;;4994105;28;20022;-71
2022/04/26 07:54:06;;;;;;;22.45;8.13;;;9.80;99.90;;;;;;4994391;28;20046;-70
2022/04/26 07:56:32;;;;;;;21.10;7.55;;;10.00;99.90;;;;;;4994329;28;20046;-70
2022/04/26 07:58:58;;;;;;;34.58;8.18;;;10.10;99.90;;;;;;4994233;28;20034;-70
2022/04/26 08:01:27;;;;;;;21.73;7.20;;;10.10;99.90;;;;;;4994370;28;20036;-70
2022/04/26 08:03:52;;;;;;;23.15;7.60;;;10.30;99.90;;;;;;4993682;28;20026;-70
2022/04/26 08:06:18;;;;;;;37.03;6.78;;;10.50;99.90;;;;;;4995391;28;20383;-70
2022/04/26 08:08:44;;;;;;;22.52;6.28;;;10.50;99.90;;;;;;4998132;28;20022;-70
2022/04/26 08:11:14;;;;;;;19.85;6.63;;;10.60;99.90;;;;;;4998004;28;20470;-70
2022/04/26 08:13:40;;;;;;;26.00;6.60;;;10.60;99.90;;;;;;4997952;28;20037;-70
2022/04/26 08:16:07;;;;;;;28.90;7.30;;;10.80;99.90;;;;;;4997740;28;20030;-70
2022/04/26 08:18:32;;;;;;;25.13;6.15;;;11.10;99.90;;;;;;4997513;28;20076;-70
2022/04/26 08:20:58;;;;;;;20.58;6.10;;;11.30;99.90;;;;;;4997587;28;20034;-70
2022/04/26 08:23:24;;;;;;;19.33;6.40;;;11.30;99.90;;;;;;4997945;28;20081;-70
2022/04/26 08:28:34;;;;;;;31.90;6.90;;;11.60;99.90;;;;;;4997886;28;20081;-70
2022/04/26 08:31:00;;;;;;;18.88;5.68;;;11.80;99.90;;;;;;4997353;28;20494;-70
2022/04/26 08:33:27;;;;;;;20.17;6.50;;;12.00;99.90;;;;;;4997699;28;20486;-70
2022/04/26 08:35:53;;;;;;;26.05;6.30;;;12.30;99.90;;;;;;4997485;28;20557;-70
2022/04/26 08:38:19;;;;;;;15.45;5.93;;;12.40;99.90;;;;;;4997473;28;20112;-70
2022/04/26 08:40:45;;;;;;;15.40;5.40;;;12.30;99.90;;;;;;4996082;28;20035;-70
2022/04/26 08:43:11;;;;;;;11.60;5.53;;;12.50;99.90;;;;;;4997397;28;20106;-70
2022/04/26 08:45:41;;;;;;;18.40;5.10;;;12.50;99.90;;;;;;4996808;28;20026;-70
2022/04/26 08:51:00;;;;;;;19.63;5.65;;;12.70;99.90;;;;;;4997925;28;20108;-70
2022/04/26 08:53:27;;;;;;;15.25;5.63;;;12.80;99.90;;;;;;4997228;28;20066;-70
2022/04/26 08:55:54;;;;;;;15.88;5.85;;;13.00;99.90;;;;;;4996938;28;20034;-70
2022/04/26 08:58:21;;;;;;;25.92;5.63;;;13.00;99.90;;;;;;4997180;28;20023;-70
2022/04/26 09:01:08;;;;;;;17.75;4.63;;;13.30;99.90;;;;;;4997428;28;20187;-70
2022/04/26 09:03:37;;;;;;;25.40;5.22;;;13.50;99.90;;;;;;4997038;28;20027;-70
2022/04/26 09:06:12;;;;;;;27.75;5.28;;;13.70;99.90;;;;;;4996611;28;20026;-70
2022/04/26 09:08:40;;;;;;;20.73;5.13;;;14.00;99.90;;;;;;4997171;28;20019;-70
2022/04/26 09:11:24;;;;;;;10.05;4.32;;;14.00;99.90;;;;;;4996797;28;20105;-70
2022/04/26 09:13:50;;;;;;;18.50;5.40;;;14.10;99.90;;;;;;4996570;28;20019;-70
2022/04/26 09:16:18;;;;;;;18.10;4.25;;;13.80;99.90;;;;;;4996660;28;20026;-70
2022/04/26 09:18:51;;;;;;;17.50;4.95;;;13.90;99.90;;;;;;4995660;28;20435;-70
2022/04/26 09:21:17;;;;;;;16.80;4.57;;;14.00;99.90;;;;;;4996975;28;20126;-69
2022/04/26 09:23:44;;;;;;;27.98;5.72;;;14.20;99.90;;;;;;4996668;28;20704;-69
2022/04/26 09:26:11;;;;;;;17.25;5.13;;;14.30;99.90;;;;;;4995296;28;20394;-69
2022/04/26 09:28:42;;;;;;;18.95;5.53;;;14.20;99.90;;;;;;4996918;28;20030;-69
2022/04/26 09:31:21;;;;;;;21.48;5.45;;;14.30;99.90;;;;;;4996562;28;20441;-69
2022/04/26 09:33:56;;;;;;;16.40;4.90;;;14.90;99.90;;;;;;4996698;28;20089;-69
2022/04/26 09:36:29;;;;;;;11.75;4.25;;;14.90;99.90;;;;;;4996919;28;20041;-69
2022/04/26 09:39:01;;;;;;;10.70;4.55;;;14.80;99.90;;;;;;4996469;28;20368;-69
2022/04/26 09:41:28;;;;;;;14.32;4.25;;;14.20;99.90;;;;;;4996317;28;20034;-70
2022/04/26 09:44:06;;;;;;;19.35;5.50;;;13.90;99.90;;;;;;4996286;28;20015;-70
2022/04/26 09:46:41;;;;;;;21.33;5.05;;;13.90;99.90;;;;;;4995939;28;20029;-70
2022/04/26 09:49:11;;;;;;;12.85;4.43;;;13.90;99.90;;;;;;4996201;28;20026;-70
2022/04/26 09:51:40;;;;;;;10.82;4.75;;;13.80;99.90;;;;;;4996158;28;20026;-70
2022/04/26 09:54:07;;;;;;;13.85;4.72;;;13.60;99.90;;;;;;4996361;28;20030;-71
2022/04/26 09:56:33;;;;;;;21.25;4.95;;;13.50;99.90;;;;;;4995638;28;20105;-70
2022/04/26 09:59:02;;;;;;;15.13;5.22;;;13.20;99.90;;;;;;4996296;28;20034;-70
2022/04/26 10:01:37;;;;;;;18.20;5.82;;;13.20;99.90;;;;;;4996159;28;20093;-70
2022/04/26 10:04:04;;;;;;;17.40;4.97;;;13.90;99.90;;;;;;4995679;28;20028;-70
2022/04/26 10:06:40;;;;;;;12.43;4.70;;;14.50;99.90;;;;;;4995810;28;20030;-70
2022/04/26 10:09:08;;;;;;;21.15;5.00;;;14.60;99.90;;;;;;4995907;28;20022;-70
2022/04/26 10:11:35;;;;;;;15.82;4.60;;;14.60;99.90;;;;;;5011019;28;20027;-70
2022/04/26 10:14:04;;;;;;;19.42;5.18;;;15.10;99.90;;;;;;4995524;28;20101;-71
2022/04/26 10:16:31;;;;;;;12.20;4.15;;;14.90;99.90;;;;;;4995108;28;20022;-71
2022/04/26 10:19:12;;;;;;;12.57;4.07;;;15.20;99.90;;;;;;4995538;28;20042;-71
2022/04/26 10:21:40;;;;;;;12.68;5.07;;;15.40;99.90;;;;;;4995364;28;20029;-71
2022/04/26 10:24:06;;;;;;;14.52;3.92;;;15.50;99.90;;;;;;4995435;28;20100;-71
2022/04/26 10:26:35;;;;;;;14.32;4.07;;;15.80;99.90;;;;;;4995234;28;20026;-70
2022/04/26 10:29:01;;;;;;;18.15;5.22;;;15.40;99.90;;;;;;4994987;28;20022;-70
2022/04/26 10:31:35;;;;;;;13.75;4.38;;;14.90;99.90;;;;;;4995438;28;20117;-70
2022/04/26 10:34:14;;;;;;;17.80;3.95;;;14.90;99.90;;;;;;4995171;28;20153;-71
2022/04/26 10:36:41;;;;;;;15.95;4.82;;;14.90;99.90;;;;;;4995069;28;20508;-71
2022/04/26 10:39:07;;;;;;;17.05;3.63;;;14.60;99.90;;;;;;4994785;28;20034;-71
2022/04/26 10:41:44;;;;;;;9.13;3.83;;;14.80;99.90;;;;;;4995619;28;20022;-71
2022/04/26 10:44:13;;;;;;;6.72;3.67;;;14.60;99.90;;;;;;4995276;28;20022;-71
2022/04/26 10:47:02;;;;;;;9.98;4.05;;;14.30;99.90;;;;;;4994818;28;20089;-71
2022/04/26 10:49:35;;;;;;;20.23;5.15;;;14.20;99.90;;;;;;4985420;28;20041;-71
2022/04/26 10:52:19;;;;;;;8.63;3.97;;;14.20;99.90;;;;;;4995165;28;20026;-71
2022/04/26 10:57:21;;;;;;;8.95;3.50;;;14.20;99.90;;;;;;4995028;28;19993;-71
2022/04/26 10:59:49;;;;;;;16.77;4.70;;;14.40;99.90;;;;;;4994840;28;20034;-71
2022/04/26 11:02:16;;;;;;;10.90;3.88;;;14.40;99.90;;;;;;4994610;28;20022;-71
2022/04/26 11:04:43;;;;;;;8.35;3.60;;;14.70;99.90;;;;;;4994311;28;20109;-70
2022/04/26 11:07:14;;;;;;;8.98;3.80;;;14.90;99.90;;;;;;4994559;28;20076;-70
2022/04/26 11:09:49;;;;;;;8.50;3.78;;;15.30;99.90;;;;;;4994594;28;20482;-69
2022/04/26 11:12:17;;;;;;;13.27;3.90;;;15.90;99.90;;;;;;4995147;28;20470;-70
2022/04/26 11:14:44;;;;;;;8.93;3.58;;;16.10;99.90;;;;;;4994734;28;20054;-71
2022/04/26 11:17:09;;;;;;;7.25;3.85;;;16.20;99.90;;;;;;4994187;28;20035;-69
2022/04/26 11:19:37;;;;;;;8.95;3.50;;;15.70;99.90;;;;;;4994754;28;20037;-69
2022/04/26 11:22:10;;;;;;;9.10;3.35;;;15.20;99.90;;;;;;4994663;28;20030;-70
2022/04/26 11:30:09;;;;;;;11.65;3.83;;;14.30;99.90;;;;;;4994624;28;20029;-70
2022/04/26 11:32:43;;;;;;;8.25;3.20;;;14.10;99.90;;;;;;4994309;28;20018;-70
2022/04/26 11:35:14;;;;;;;7.95;4.50;;;14.00;99.90;;;;;;5010189;28;20049;-69
2022/04/26 11:37:47;;;;;;;10.77;4.07;;;13.80;99.90;;;;;;4994550;28;20057;-68
2022/04/26 11:40:28;;;;;;;6.93;3.65;;;13.80;99.90;;;;;;4994442;28;20029;-69
2022/04/26 11:43:05;;;;;;;20.48;3.50;;;13.90;99.90;;;;;;4994467;28;20382;-68
2022/04/26 11:45:33;;;;;;;9.10;3.45;;;14.10;99.90;;;;;;5009216;28;20390;-69
2022/04/26 11:47:59;;;;;;;9.60;4.40;;;14.70;99.90;;;;;;4994169;28;20027;-69
2022/04/26 11:50:27;;;;;;;9.05;3.67;;;15.20;99.90;;;;;;4992455;28;20018;-68
2022/04/26 11:53:01;;;;;;;24.33;3.83;;;15.80;99.90;;;;;;4994302;28;20061;-69
2022/04/26 11:55:32;;;;;;;10.40;4.18;;;16.40;99.90;;;;;;4994901;28;20044;-70
2022/04/26 11:58:27;;;;;;;11.27;3.75;;;16.90;99.90;;;;;;4995573;28;20085;-71
2022/04/26 12:01:02;;;;;;;7.65;3.50;;;17.10;99.90;;;;;;4972720;28;20474;-71
2022/04/26 12:03:44;;;;;;;11.32;3.70;;;17.10;99.90;;;;;;4994378;28;20054;-69
2022/04/26 12:06:11;;;;;;;11.85;4.32;;;17.10;99.90;;;;;;4994220;28;20098;-69
2022/04/26 12:08:45;;;;;;;6.82;3.08;;;17.50;99.90;;;;;;4994412;28;20018;-71
2022/04/26 12:11:29;;;;;;;5.75;2.80;;;17.40;99.90;;;;;;4994243;28;20058;-72
2022/04/26 12:14:01;;;;;;;6.95;3.30;;;16.60;99.90;;;;;;4993720;28;20054;-71
2022/04/26 12:16:28;;;;;;;5.95;2.55;;;16.70;99.90;;;;;;4993880;28;20029;-71
2022/04/26 12:18:54;;;;;;;5.88;3.30;;;17.00;99.90;;;;;;4993792;28;20027;-72
2022/04/26 12:21:22;;;;;;;13.73;3.88;;;17.20;99.90;;;;;;4993784;28;20089;-72
2022/04/26 12:24:07;;;;;;;45.35;4.22;;;17.50;99.90;;;;;;4994372;28;20088;-71
2022/04/26 12:26:33;;;;;;;6.90;3.15;;;17.80;99.90;;;;;;4994033;28;20030;-72
2022/04/26 12:28:59;;;;;;;8.77;3.28;;;18.30;99.90;;;;;;4993829;28;20027;-71
2022/04/26 12:31:30;;;;;;;7.90;3.33;;;18.10;99.90;;;;;;4993811;28;20081;-72
2022/04/26 12:34:18;;;;;;;7.40;3.67;;;17.70;99.90;;;;;;4994172;28;20042;-72
2022/04/26 12:36:53;;;;;;;15.63;3.80;;;17.70;99.90;;;;;;4993025;28;20055;-72
2022/04/26 12:39:20;;;;;;;9.75;3.58;;;17.80;99.90;;;;;;4994417;28;20026;-72
2022/04/26 12:41:48;;;;;;;8.52;3.85;;;17.80;99.90;;;;;;4993776;28;20088;-72
2022/04/26 12:44:15;;;;;;;9.32;3.80;;;17.80;99.90;;;;;;4993862;28;20100;-72
2022/04/26 12:46:45;;;;;;;8.07;2.70;;;18.20;98.90;;;;;;4993169;28;20161;-73
2022/04/26 12:51:55;;;;;;;7.40;3.58;;;18.50;97.40;;;;;;4993700;28;20092;-72
2022/04/26 12:54:21;;;;;;;7.40;3.22;;;17.70;98.40;;;;;;4994998;28;20493;-72
2022/04/26 12:56:59;;;;;;;16.20;3.60;;;17.60;98.40;;;;;;4996343;28;20038;-74
2022/04/26 12:59:34;;;;;;;9.20;3.42;;;18.00;99.90;;;;;;4997023;28;20026;-73
2022/04/26 13:02:00;;;;;;;9.23;3.35;;;17.60;98.90;;;;;;4997821;28;20018;-74
2022/04/26 13:04:26;;;;;;;11.98;3.35;;;17.40;98.80;;;;;;4997816;28;20030;-74
2022/04/26 13:06:53;;;;;;;20.08;4.15;;;16.90;99.90;;;;;;4997443;28;20028;-74
2022/04/26 13:09:18;;;;;;;8.20;3.83;;;17.00;99.90;;;;;;4995545;28;20031;-71
2022/04/26 13:11:44;;;;;;;6.78;3.42;;;17.40;99.90;;;;;;4995862;28;20073;-74
2022/04/26 13:14:10;;;;;;;7.65;3.25;;;17.70;99.90;;;;;;4996447;28;20073;-74
2022/04/26 13:16:36;;;;;;;6.18;3.08;;;18.00;98.10;;;;;;4996025;28;20426;-75
2022/04/26 13:19:01;;;;;;;14.25;3.33;;;17.90;97.50;;;;;;4996497;28;20048;-72
2022/04/26 13:21:27;;;;;;;7.72;3.22;;;18.20;96.90;;;;;;4995909;28;20108;-72
2022/04/26 13:23:54;;;;;;;5.75;2.55;;;18.30;98.40;;;;;;4995284;28;20435;-70
2022/04/26 13:26:20;;;;;;;7.18;3.08;;;19.00;94.80;;;;;;4996270;28;20030;-71
2022/04/26 13:28:46;;;;;;;7.82;3.25;;;19.00;93.80;;;;;;4996785;28;20023;-70
2022/04/26 13:31:11;;;;;;;7.10;2.85;;;18.80;95.30;;;;;;4995224;28;20084;-70
2022/04/26 13:33:37;;;;;;;10.05;3.40;;;18.30;93.00;;;;;;4996180;28;20080;-70
2022/04/26 13:36:02;;;;;;;11.65;3.20;;;18.30;94.40;;;;;;4996013;28;20038;-70
2022/04/26 13:38:28;;;;;;;14.18;3.65;;;18.60;95.30;;;;;;4996109;28;20061;-70
2022/04/26 13:40:55;;;;;;;14.07;4.50;;;18.50;92.80;;;;;;4996158;28;20092;-70
2022/04/26 13:43:23;;;;;;;7.45;3.55;;;18.60;94.20;;;;;;4995211;28;20015;-70
2022/04/26 13:45:49;;;;;;;12.93;3.63;;;18.90;93.10;;;;;;4995978;28;20123;-71
2022/04/26 13:48:14;;;;;;;11.75;3.40;;;19.10;94.20;;;;;;4996168;28;20468;-71
2022/04/26 13:50:40;;;;;;;8.90;3.70;;;19.00;92.20;;;;;;4996072;28;20029;-71
2022/04/26 13:53:06;;;;;;;6.97;2.63;;;19.00;90.90;;;;;;4995569;28;20108;-70
2022/04/26 13:55:32;;;;;;;8.73;3.40;;;18.50;91.70;;;;;;4996251;28;20030;-70
2022/04/26 13:57:57;;;;;;;17.27;4.30;;;18.30;93.00;;;;;;4995595;28;20045;-71
2022/04/26 14:00:23;;;;;;;5.28;3.15;;;17.80;92.10;;;;;;4995536;28;20454;-71
2022/04/26 14:02:49;;;;;;;11.32;3.47;;;17.80;92.90;;;;;;4995844;28;20032;-71
2022/04/26 14:05:16;;;;;;;12.88;3.47;;;17.90;91.70;;;;;;4995200;28;20050;-71
2022/04/26 14:07:41;;;;;;;6.95;3.22;;;18.00;93.20;;;;;;4995775;28;20014;-71
2022/04/26 14:10:08;;;;;;;6.93;3.47;;;17.80;91.20;;;;;;5010424;28;20525;-71
2022/04/26 14:12:34;;;;;;;8.90;3.25;;;17.80;90.60;;;;;;4995528;28;20035;-71
2022/04/26 14:23:12;;;;;;;;;;;18.50;86.80;;;;;;4995983;28;20029;-71
2022/04/26 14:25:38;;;;;;;9.85;2.83;;;18.40;90.50;;;;;;4995590;28;19905;-70
2022/04/26 14:28:04;;;;;;;8.95;3.90;;;18.20;90.00;;;;;;4995345;28;20101;-71
2022/04/26 14:30:30;;;;;;;6.68;3.28;;;17.60;90.70;;;;;;4995099;28;20030;-70
2022/04/26 14:32:55;;;;;;;8.10;3.45;;;17.40;91.90;;;;;;4994643;28;20478;-71
2022/04/26 14:35:21;;;;;;;8.43;3.00;;;17.50;94.20;;;;;;4995095;28;20034;-71
2022/04/26 14:37:48;;;;;;;7.35;3.22;;;17.90;92.20;;;;;;4995049;28;20403;-71
2022/04/26 14:40:14;;;;;;;14.52;3.22;;;18.00;92.10;;;;;;4995918;28;20388;-71
2022/04/26 14:42:45;;;;;;;15.63;3.75;;;17.70;92.90;;;;;;4994926;28;20026;-70
2022/04/26 14:45:10;;;;;;;12.73;3.03;;;17.60;93.60;;;;;;4994590;28;20083;-70
2022/04/26 14:47:36;;;;;;;7.43;2.70;;;17.80;94.30;;;;;;4994783;28;20026;-70
2022/04/26 14:50:02;;;;;;;5.68;2.65;;;17.90;93.50;;;;;;4994997;28;20034;-70
2022/04/26 14:52:28;;;;;;;13.13;3.10;;;18.00;93.40;;;;;;4995161;28;20126;-71
2022/04/26 14:54:53;;;;;;;7.95;2.92;;;17.90;92.70;;;;;;4994933;28;20030;-70
2022/04/26 14:57:19;;;;;;;14.25;3.28;;;17.40;93.00;;;;;;4994659;28;20053;-71
2022/04/26 14:59:48;;;;;;;6.35;3.33;;;17.30;93.10;;;;;;4994112;28;20399;-71
2022/04/26 15:02:18;;;;;;;10.80;3.47;;;17.30;92.70;;;;;;4994329;28;20385;-71
2022/04/26 15:04:44;;;;;;;4.93;2.63;;;17.30;93.30;;;;;;4995270;28;20027;-71
2022/04/26 15:07:10;;;;;;;12.32;2.65;;;17.30;92.60;;;;;;4995235;28;20028;-71
2022/04/26 15:09:51;;;;;;;11.65;3.00;;;17.10;95.50;;;;;;4993828;28;20049;-71
2022/04/26 15:17:48;;;;;;;15.80;3.00;;;17.00;94.30;;;;;;4995090;28;20053;-71
2022/04/26 15:20:17;;;;;;;8.27;2.67;;;17.30;94.20;;;;;;4995140;28;20038;-71
2022/04/26 15:22:43;;;;;;;11.60;2.78;;;17.30;96.00;;;;;;4994444;28;20034;-71
2022/04/26 15:25:09;;;;;;;8.10;3.30;;;17.40;96.70;;;;;;4994978;28;20022;-71
2022/04/26 15:27:37;;;;;;;7.20;2.78;;;17.30;95.00;;;;;;4995199;28;20038;-71
2022/04/26 15:30:05;;;;;;;8.25;3.08;;;17.30;96.00;;;;;;4994920;28;20025;-71
2022/04/26 15:32:31;;;;;;;8.43;3.13;;;17.60;95.50;;;;;;4994108;28;20105;-70
2022/04/26 15:34:56;;;;;;;10.73;3.28;;;17.70;93.40;;;;;;4994246;28;20506;-70
2022/04/26 15:37:24;;;;;;;15.65;3.13;;;17.50;94.50;;;;;;4994267;28;20038;-70
2022/04/26 15:39:50;;;;;;;12.93;3.00;;;17.00;95.10;;;;;;4994397;28;20068;-70
2022/04/26 15:42:18;;;;;;;13.82;3.05;;;17.00;98.70;;;;;;4993832;28;20053;-72
2022/04/26 15:44:44;;;;;;;15.15;3.08;;;17.00;94.70;;;;;;4994312;28;20019;-71
2022/04/26 15:47:09;;;;;;;5.88;2.85;;;16.60;94.30;;;;;;4994408;28;20027;-71
2022/04/26 15:49:35;;;;;;;10.98;3.05;;;16.70;94.20;;;;;;4994379;28;20142;-71
2022/04/26 15:52:00;;;;;;;12.80;2.97;;;16.70;96.40;;;;;;4994365;28;20393;-71
2022/04/26 15:54:26;;;;;;;11.88;2.90;;;16.50;96.60;;;;;;4994144;28;20109;-71
2022/04/26 15:56:51;;;;;;;10.88;3.20;;;16.40;96.70;;;;;;4994455;28;20031;-71
2022/04/26 15:59:17;;;;;;;11.73;3.03;;;16.00;96.90;;;;;;4994282;28;20038;-72
2022/04/26 16:01:43;;;;;;;10.02;3.00;;;15.70;98.00;;;;;;4994241;28;20541;-72
2022/04/26 16:04:12;;;;;;;12.68;2.80;;;15.90;98.40;;;;;;4992575;28;20038;-72
2022/04/26 16:06:42;;;;;;;10.65;3.25;;;16.40;96.90;;;;;;4992314;28;20057;-71
2022/04/26 16:22:50;;;;;;;12.20;2.83;;;16.60;96.60;;;;;;4993389;28;19920;-74
2022/04/26 16:25:17;;;;;;;6.90;2.72;;;16.70;96.30;;;;;;4989221;28;20022;-73
2022/04/26 16:27:43;;;;;;;12.40;2.97;;;16.40;96.70;;;;;;4995375;28;20026;-73
2022/04/26 16:30:11;;;;;;;12.10;3.15;;;16.30;96.40;;;;;;4998798;28;20360;-73
2022/04/26 16:32:38;;;;;;;15.30;3.13;;;16.50;97.90;;;;;;4996055;28;20030;-73
2022/04/26 16:35:05;;;;;;;6.88;3.03;;;16.60;96.20;;;;;;4996793;28;20504;-73
2022/04/26 16:37:31;;;;;;;9.48;3.05;;;16.30;97.60;;;;;;4996825;28;20034;-73
2022/04/26 16:39:56;;;;;;;9.27;2.40;;;16.20;96.60;;;;;;4997110;28;20508;-72
2022/04/26 16:42:22;;;;;;;11.68;3.20;;;16.20;96.90;;;;;;5011426;28;20037;-73
2022/04/26 16:44:47;;;;;;;10.50;2.75;;;15.80;97.20;;;;;;4996747;28;20026;-74
2022/04/26 16:47:13;;;;;;;9.07;2.83;;;15.50;97.70;;;;;;4996573;28;20034;-73
2022/04/26 16:49:39;;;;;;;16.80;2.88;;;15.60;98.50;;;;;;4996412;28;20052;-73
2022/04/26 16:52:05;;;;;;;6.38;2.13;;;15.50;99.00;;;;;;4997098;28;20529;-71
2022/04/26 16:54:30;;;;;;;11.85;2.65;;;15.60;99.20;;;;;;4997329;28;20030;-71
2022/04/26 16:56:57;;;;;;;16.02;3.47;;;15.20;99.90;;;;;;4996283;28;20026;-71
2022/04/26 16:59:24;;;;;;;14.60;3.00;;;15.20;99.90;;;;;;4996854;28;20038;-70
2022/04/26 17:01:50;;;;;;;8.68;2.55;;;15.30;99.90;;;;;;4997098;28;20037;-71
2022/04/26 17:04:17;;;;;;;6.28;2.58;;;15.20;99.90;;;;;;4997210;28;20025;-71
2022/04/26 17:06:43;;;;;;;13.35;2.53;;;15.20;99.90;;;;;;4996536;28;20025;-71
2022/04/26 17:09:09;;;;;;;10.60;2.80;;;15.20;99.90;;;;;;4997120;28;20073;-70